sensor_id;sensor_type;location;lat;lon;timestamp;pressure;altitude;pressure_sealevel;temperature;humidity
59435;BME280;45241;49.768;8.636;2022-12-05T00:01:55;100034.59;;;6.56;96.90
59435;BME280;45241;49.768;8.636;2022-12-05T00:04:20;100037.66;;;6.36;96.93
59435;BME280;45241;49.768;8.636;2022-12-05T00:06:45;100041.59;;;6.57;96.48
59435;BME280;45241;49.768;8.636;2022-12-05T00:09:11;100040.25;;;6.61;95.32
59435;BME280;45241;49.768;8.636;2022-12-05T00:11:37;100046.91;;;6.73;95.21
59435;BME280;45241;49.768;8.636;2022-12-05T00:14:03;100056.25;;;6.61;92.99
59435;BME280;45241;49.768;8.636;2022-12-05T00:16:30;100048.25;;;5.47;100.00
59435;BME280;45241;49.768;8.636;2022-12-05T00:18:57;100056.66;;;5.26;100.00
59435;BME280;45241;49.768;8.636;2022-12-05T00:21:24;100059.75;;;5.64;100.00
59435;BME280;45241;49.768;8.636;2022-12-05T00:23:50;100062.09;;;5.91;100.00
59435;BME280;45241;49.768;8.636;2022-12-05T00:26:16;100062.19;;;5.33;100.00
59435;BME280;45241;49.768;8.636;2022-12-05T00:28:41;100068.44;;;5.66;100.00
59435;BME280;45241;49.768;8.636;2022-12-05T00:31:08;100068.44;;;5.90;100.00
59435;BME280;45241;49.768;8.636;2022-12-05T00:33:33;100068.38;;;5.41;100.00
59435;BME280;45241;49.768;8.636;2022-12-05T00:36:02;100079.09;;;5.82;100.00
59435;BME280;45241;49.768;8.636;2022-12-05T00:38:28;100070.22;;;5.65;100.00
59435;BME280;45241;49.768;8.636;2022-12-05T00:40:53;100072.88;;;5.57;100.00
59435;BME280;45241;49.768;8.636;2022-12-05T00:43:19;100080.56;;;5.18;100.00
59435;BME280;45241;49.768;8.636;2022-12-05T00:45:44;100080.47;;;5.28;100.00
59435;BME280;45241;49.768;8.636;2022-12-05T00:48:09;100077.72;;;5.70;100.00
59435;BME280;45241;49.768;8.636;2022-12-05T00:50:34;100082.72;;;5.89;100.00
59435;BME280;45241;49.768;8.636;2022-12-05T00:52:59;100086.44;;;4.95;100.00
59435;BME280;45241;49.768;8.636;2022-12-05T00:55:24;100081.97;;;4.96;100.00
59435;BME280;45241;49.768;8.636;2022-12-05T00:57:50;100080.50;;;5.44;100.00
59435;BME280;45241;49.768;8.636;2022-12-05T01:00:15;100074.75;;;5.89;100.00
59435;BME280;45241;49.768;8.636;2022-12-05T01:02:40;100070.53;;;5.46;100.00
59435;BME280;45241;49.768;8.636;2022-12-05T01:05:06;100076.41;;;5.90;100.00
59435;BME280;45241;49.768;8.636;2022-12-05T01:07:31;100086.41;;;6.29;100.00
59435;BME280;45241;49.768;8.636;2022-12-05T01:09:56;100089.38;;;5.77;100.00
59435;BME280;45241;49.768;8.636;2022-12-05T01:12:22;100089.06;;;6.04;100.00
59435;BME280;45241;49.768;8.636;2022-12-05T01:14:47;100096.31;;;5.53;100.00
59435;BME280;45241;49.768;8.636;2022-12-05T01:17:12;100102.06;;;6.32;99.74
59435;BME280;45241;49.768;8.636;2022-12-05T01:19:37;100106.03;;;6.11;99.37
59435;BME280;45241;49.768;8.636;2022-12-05T01:22:02;100105.97;;;5.63;100.00
59435;BME280;45241;49.768;8.636;2022-12-05T01:24:28;100109.16;;;5.74;100.00
59435;BME280;45241;49.768;8.636;2022-12-05T01:26:53;100114.59;;;5.65;100.00
59435;BME280;45241;49.768;8.636;2022-12-05T01:29:19;100116.13;;;5.67;100.00
59435;BME280;45241;49.768;8.636;2022-12-05T01:31:45;100113.72;;;5.48;100.00
59435;BME280;45241;49.768;8.636;2022-12-05T01:34:11;100121.00;;;5.30;100.00
59435;BME280;45241;49.768;8.636;2022-12-05T01:36:37;100121.09;;;5.54;100.00
59435;BME280;45241;49.768;8.636;2022-12-05T01:39:03;100125.16;;;5.32;100.00
59435;BME280;45241;49.768;8.636;2022-12-05T01:41:29;100125.63;;;5.86;100.00
59435;BME280;45241;49.768;8.636;2022-12-05T01:43:57;100121.53;;;5.41;100.00
59435;BME280;45241;49.768;8.636;2022-12-05T01:46:22;100127.81;;;5.32;100.00
59435;BME280;45241;49.768;8.636;2022-12-05T01:48:47;100128.81;;;5.31;100.00
59435;BME280;45241;49.768;8.636;2022-12-05T01:51:13;100120.84;;;5.39;100.00
59435;BME280;45241;49.768;8.636;2022-12-05T01:53:39;100127.53;;;5.09;100.00
59435;BME280;45241;49.768;8.636;2022-12-05T01:56:04;100119.00;;;5.32;100.00
59435;BME280;45241;49.768;8.636;2022-12-05T01:58:31;100121.47;;;5.92;100.00
59435;BME280;45241;49.768;8.636;2022-12-05T02:00:57;100125.16;;;5.32;100.00
59435;BME280;45241;49.768;8.636;2022-12-05T02:03:22;100116.78;;;5.77;100.00
59435;BME280;45241;49.768;8.636;2022-12-05T02:05:48;100121.28;;;5.77;100.00
59435;BME280;45241;49.768;8.636;2022-12-05T02:08:14;100115.50;;;5.81;100.00
59435;BME280;45241;49.768;8.636;2022-12-05T02:10:41;100109.06;;;5.42;100.00
59435;BME280;45241;49.768;8.636;2022-12-05T02:13:51;100112.19;;;6.04;100.00
59435;BME280;45241;49.768;8.636;2022-12-05T02:18:48;100111.69;;;5.92;100.00
59435;BME280;45241;49.768;8.636;2022-12-05T02:21:31;100118.03;;;6.24;99.93
59435;BME280;45241;49.768;8.636;2022-12-05T02:24:07;100116.00;;;5.85;100.00
59435;BME280;45241;49.768;8.636;2022-12-05T02:26:47;100114.50;;;5.99;100.00
59435;BME280;45241;49.768;8.636;2022-12-05T02:29:36;100127.59;;;5.25;100.00
59435;BME280;45241;49.768;8.636;2022-12-05T02:34:33;100129.41;;;5.17;100.00
59435;BME280;45241;49.768;8.636;2022-12-05T02:37:11;100131.34;;;5.49;100.00
59435;BME280;45241;49.768;8.636;2022-12-05T02:42:08;100133.16;;;5.40;100.00
59435;BME280;45241;49.768;8.636;2022-12-05T02:44:37;100137.47;;;6.08;100.00
59435;BME280;45241;49.768;8.636;2022-12-05T02:47:05;100139.66;;;6.21;100.00
59435;BME280;45241;49.768;8.636;2022-12-05T02:49:32;100143.75;;;5.82;100.00
59435;BME280;45241;49.768;8.636;2022-12-05T02:51:59;100133.00;;;5.42;100.00
59435;BME280;45241;49.768;8.636;2022-12-05T02:54:27;100144.16;;;5.11;100.00
59435;BME280;45241;49.768;8.636;2022-12-05T02:56:53;100142.91;;;5.32;100.00
59435;BME280;45241;49.768;8.636;2022-12-05T02:59:19;100147.19;;;5.59;100.00
59435;BME280;45241;49.768;8.636;2022-12-05T03:01:45;100154.09;;;5.09;100.00
59435;BME280;45241;49.768;8.636;2022-12-05T03:04:11;100152.16;;;5.19;100.00
59435;BME280;45241;49.768;8.636;2022-12-05T03:06:42;100163.25;;;5.49;100.00
59435;BME280;45241;49.768;8.636;2022-12-05T03:09:12;100148.81;;;5.51;100.00
59435;BME280;45241;49.768;8.636;2022-12-05T03:11:41;100161.41;;;6.00;100.00
59435;BME280;45241;49.768;8.636;2022-12-05T03:14:10;100164.66;;;5.69;100.00
59435;BME280;45241;49.768;8.636;2022-12-05T03:16:37;100163.09;;;6.09;100.00
59435;BME280;45241;49.768;8.636;2022-12-05T03:19:07;100159.44;;;6.10;100.00
59435;BME280;45241;49.768;8.636;2022-12-05T03:21:48;100171.41;;;6.06;100.00
59435;BME280;45241;49.768;8.636;2022-12-05T03:24:16;100173.44;;;6.20;100.00
59435;BME280;45241;49.768;8.636;2022-12-05T03:29:28;100169.84;;;5.79;100.00
59435;BME280;45241;49.768;8.636;2022-12-05T03:34:38;100182.66;;;5.92;100.00
59435;BME280;45241;49.768;8.636;2022-12-05T03:37:08;100179.78;;;5.69;100.00
59435;BME280;45241;49.768;8.636;2022-12-05T03:39:36;100176.59;;;5.57;100.00
59435;BME280;45241;49.768;8.636;2022-12-05T03:42:11;100188.91;;;4.98;100.00
59435;BME280;45241;49.768;8.636;2022-12-05T03:47:32;100193.16;;;5.43;100.00
59435;BME280;45241;49.768;8.636;2022-12-05T03:49:54;100185.56;;;5.64;100.00
59435;BME280;45241;49.768;8.636;2022-12-05T03:54:58;100192.53;;;5.23;100.00
59435;BME280;45241;49.768;8.636;2022-12-05T03:57:26;100195.88;;;4.99;100.00
59435;BME280;45241;49.768;8.636;2022-12-05T04:02:23;100201.31;;;5.49;100.00
59435;BME280;45241;49.768;8.636;2022-12-05T04:04:56;100188.38;;;6.05;100.00
59435;BME280;45241;49.768;8.636;2022-12-05T04:07:23;100197.03;;;5.57;100.00
59435;BME280;45241;49.768;8.636;2022-12-05T04:09:51;100195.66;;;5.95;100.00
59435;BME280;45241;49.768;8.636;2022-12-05T04:12:23;100197.34;;;6.12;100.00
59435;BME280;45241;49.768;8.636;2022-12-05T04:14:52;100203.19;;;6.07;100.00
59435;BME280;45241;49.768;8.636;2022-12-05T04:17:26;100203.84;;;6.09;100.00
59435;BME280;45241;49.768;8.636;2022-12-05T04:20:15;100207.56;;;5.74;100.00
59435;BME280;45241;49.768;8.636;2022-12-05T04:22:58;100212.16;;;5.56;100.00
59435;BME280;45241;49.768;8.636;2022-12-05T04:25:24;100213.75;;;5.41;100.00
59435;BME280;45241;49.768;8.636;2022-12-05T04:30:25;100218.66;;;5.62;100.00
59435;BME280;45241;49.768;8.636;2022-12-05T04:35:31;100228.88;;;5.82;100.00
59435;BME280;45241;49.768;8.636;2022-12-05T04:38:03;100232.19;;;4.90;100.00
59435;BME280;45241;49.768;8.636;2022-12-05T04:40:37;100235.94;;;5.58;100.00
59435;BME280;45241;49.768;8.636;2022-12-05T04:43:04;100234.38;;;5.47;100.00
59435;BME280;45241;49.768;8.636;2022-12-05T04:45:31;100226.22;;;5.48;100.00
59435;BME280;45241;49.768;8.636;2022-12-05T04:47:58;100229.41;;;5.18;100.00
59435;BME280;45241;49.768;8.636;2022-12-05T04:50:25;100234.91;;;5.24;100.00
59435;BME280;45241;49.768;8.636;2022-12-05T04:52:53;100230.22;;;5.87;100.00
59435;BME280;45241;49.768;8.636;2022-12-05T04:55:22;100228.47;;;5.27;100.00
59435;BME280;45241;49.768;8.636;2022-12-05T04:58:01;100229.97;;;5.30;100.00
59435;BME280;45241;49.768;8.636;2022-12-05T05:00:28;100236.88;;;4.97;100.00
59435;BME280;45241;49.768;8.636;2022-12-05T05:03:03;100232.88;;;4.92;100.00
59435;BME280;45241;49.768;8.636;2022-12-05T05:05:31;100226.59;;;5.53;100.00
59435;BME280;45241;49.768;8.636;2022-12-05T05:07:58;100219.31;;;5.56;100.00
59435;BME280;45241;49.768;8.636;2022-12-05T05:10:32;100217.19;;;5.07;100.00
59435;BME280;45241;49.768;8.636;2022-12-05T05:12:59;100203.91;;;5.67;100.00
59435;BME280;45241;49.768;8.636;2022-12-05T05:15:24;100193.53;;;6.06;100.00
59435;BME280;45241;49.768;8.636;2022-12-05T05:17:49;100206.59;;;5.41;100.00
59435;BME280;45241;49.768;8.636;2022-12-05T05:20:14;100207.72;;;5.73;100.00
59435;BME280;45241;49.768;8.636;2022-12-05T05:22:49;100209.81;;;5.53;100.00
59435;BME280;45241;49.768;8.636;2022-12-05T05:25:15;100204.47;;;5.45;100.00
59435;BME280;45241;49.768;8.636;2022-12-05T05:27:40;100211.88;;;5.07;100.00
59435;BME280;45241;49.768;8.636;2022-12-05T05:30:06;100217.09;;;5.51;100.00
59435;BME280;45241;49.768;8.636;2022-12-05T05:32:31;100198.03;;;6.06;100.00
59435;BME280;45241;49.768;8.636;2022-12-05T05:34:56;100210.06;;;6.34;100.00
59435;BME280;45241;49.768;8.636;2022-12-05T05:37:22;100214.97;;;5.54;100.00
59435;BME280;45241;49.768;8.636;2022-12-05T05:39:47;100225.72;;;5.45;100.00
59435;BME280;45241;49.768;8.636;2022-12-05T05:42:12;100228.31;;;5.29;100.00
59435;BME280;45241;49.768;8.636;2022-12-05T05:44:37;100226.84;;;5.68;100.00
59435;BME280;45241;49.768;8.636;2022-12-05T05:47:02;100216.78;;;6.04;100.00
59435;BME280;45241;49.768;8.636;2022-12-05T05:49:28;100221.81;;;6.16;100.00
59435;BME280;45241;49.768;8.636;2022-12-05T05:51:53;100219.53;;;5.70;100.00
59435;BME280;45241;49.768;8.636;2022-12-05T05:54:18;100225.50;;;5.38;100.00
59435;BME280;45241;49.768;8.636;2022-12-05T05:56:43;100243.63;;;5.77;100.00
59435;BME280;45241;49.768;8.636;2022-12-05T05:59:08;100239.25;;;5.60;100.00
59435;BME280;45241;49.768;8.636;2022-12-05T06:01:35;100250.22;;;5.57;100.00
59435;BME280;45241;49.768;8.636;2022-12-05T06:04:00;100253.34;;;5.26;100.00
59435;BME280;45241;49.768;8.636;2022-12-05T06:06:26;100248.16;;;5.50;100.00
59435;BME280;45241;49.768;8.636;2022-12-05T06:08:51;100251.88;;;6.00;100.00
59435;BME280;45241;49.768;8.636;2022-12-05T06:11:21;100253.94;;;5.72;100.00
59435;BME280;45241;49.768;8.636;2022-12-05T06:13:46;100258.78;;;5.42;100.00
59435;BME280;45241;49.768;8.636;2022-12-05T06:16:12;100253.63;;;6.25;100.00
59435;BME280;45241;49.768;8.636;2022-12-05T06:18:38;100257.94;;;6.26;100.00
59435;BME280;45241;49.768;8.636;2022-12-05T06:21:03;100262.91;;;6.05;100.00
59435;BME280;45241;49.768;8.636;2022-12-05T06:23:32;100262.91;;;5.71;100.00
59435;BME280;45241;49.768;8.636;2022-12-05T06:25:57;100268.25;;;5.45;100.00
59435;BME280;45241;49.768;8.636;2022-12-05T06:28:23;100265.50;;;5.97;100.00
59435;BME280;45241;49.768;8.636;2022-12-05T06:30:48;100269.16;;;5.53;100.00
59435;BME280;45241;49.768;8.636;2022-12-05T06:33:14;100271.91;;;5.18;100.00
59435;BME280;45241;49.768;8.636;2022-12-05T06:35:39;100275.72;;;5.41;100.00
59435;BME280;45241;49.768;8.636;2022-12-05T06:38:05;100274.41;;;5.45;100.00
59435;BME280;45241;49.768;8.636;2022-12-05T06:40:30;100276.66;;;5.58;100.00
59435;BME280;45241;49.768;8.636;2022-12-05T06:42:55;100282.06;;;5.48;100.00
59435;BME280;45241;49.768;8.636;2022-12-05T06:45:21;100282.13;;;5.57;100.00
59435;BME280;45241;49.768;8.636;2022-12-05T06:47:46;100285.94;;;5.54;100.00
59435;BME280;45241;49.768;8.636;2022-12-05T06:50:11;100288.69;;;5.70;100.00
59435;BME280;45241;49.768;8.636;2022-12-05T06:52:36;100293.78;;;5.98;100.00
59435;BME280;45241;49.768;8.636;2022-12-05T06:55:01;100292.16;;;6.05;100.00
59435;BME280;45241;49.768;8.636;2022-12-05T06:57:27;100297.66;;;6.11;100.00
59435;BME280;45241;49.768;8.636;2022-12-05T06:59:52;100293.22;;;6.28;100.00
59435;BME280;45241;49.768;8.636;2022-12-05T07:02:38;100297.34;;;6.14;100.00
59435;BME280;45241;49.768;8.636;2022-12-05T07:05:05;100294.13;;;5.95;100.00
59435;BME280;45241;49.768;8.636;2022-12-05T07:07:31;100288.28;;;5.57;100.00
59435;BME280;45241;49.768;8.636;2022-12-05T07:09:56;100283.63;;;5.93;100.00
59435;BME280;45241;49.768;8.636;2022-12-05T07:12:21;100289.56;;;6.29;100.00
59435;BME280;45241;49.768;8.636;2022-12-05T07:14:46;100298.88;;;6.25;100.00
59435;BME280;45241;49.768;8.636;2022-12-05T07:17:11;100294.94;;;6.46;100.00
59435;BME280;45241;49.768;8.636;2022-12-05T07:19:37;100309.25;;;6.45;100.00
59435;BME280;45241;49.768;8.636;2022-12-05T07:22:02;100307.41;;;5.95;100.00
59435;BME280;45241;49.768;8.636;2022-12-05T07:24:27;100306.41;;;6.38;100.00
59435;BME280;45241;49.768;8.636;2022-12-05T07:26:53;100310.19;;;6.19;100.00
59435;BME280;45241;49.768;8.636;2022-12-05T07:29:18;100315.88;;;6.32;100.00
59435;BME280;45241;49.768;8.636;2022-12-05T07:31:43;100320.22;;;6.33;100.00
59435;BME280;45241;49.768;8.636;2022-12-05T07:34:08;100329.22;;;6.57;100.00
59435;BME280;45241;49.768;8.636;2022-12-05T07:36:34;100331.91;;;6.57;100.00
59435;BME280;45241;49.768;8.636;2022-12-05T07:38:59;100327.97;;;6.19;100.00
59435;BME280;45241;49.768;8.636;2022-12-05T07:41:25;100331.16;;;5.88;100.00
59435;BME280;45241;49.768;8.636;2022-12-05T07:43:52;100334.59;;;6.14;100.00
59435;BME280;45241;49.768;8.636;2022-12-05T07:46:17;100342.03;;;6.03;100.00
59435;BME280;45241;49.768;8.636;2022-12-05T07:48:42;100339.72;;;5.74;100.00
59435;BME280;45241;49.768;8.636;2022-12-05T07:51:08;100342.47;;;5.90;100.00
59435;BME280;45241;49.768;8.636;2022-12-05T07:53:33;100337.38;;;5.97;100.00
59435;BME280;45241;49.768;8.636;2022-12-05T07:55:59;100344.66;;;5.95;100.00
59435;BME280;45241;49.768;8.636;2022-12-05T07:58:26;100346.25;;;5.79;100.00
59435;BME280;45241;49.768;8.636;2022-12-05T08:00:52;100338.91;;;6.07;100.00
59435;BME280;45241;49.768;8.636;2022-12-05T08:03:17;100344.63;;;6.21;100.00
59435;BME280;45241;49.768;8.636;2022-12-05T08:05:42;100350.53;;;5.72;100.00
59435;BME280;45241;49.768;8.636;2022-12-05T08:08:07;100351.59;;;5.88;100.00
59435;BME280;45241;49.768;8.636;2022-12-05T08:10:33;100352.13;;;6.25;100.00
59435;BME280;45241;49.768;8.636;2022-12-05T08:12:58;100353.38;;;6.47;100.00
59435;BME280;45241;49.768;8.636;2022-12-05T08:15:24;100360.50;;;6.04;100.00
59435;BME280;45241;49.768;8.636;2022-12-05T08:17:49;100356.59;;;5.82;100.00
59435;BME280;45241;49.768;8.636;2022-12-05T08:20:14;100362.25;;;5.88;100.00
59435;BME280;45241;49.768;8.636;2022-12-05T08:22:39;100366.44;;;6.24;100.00
59435;BME280;45241;49.768;8.636;2022-12-05T08:25:04;100373.41;;;6.25;100.00
59435;BME280;45241;49.768;8.636;2022-12-05T08:27:30;100369.78;;;5.92;100.00
59435;BME280;45241;49.768;8.636;2022-12-05T08:29:55;100375.28;;;5.99;100.00
59435;BME280;45241;49.768;8.636;2022-12-05T08:32:20;100381.50;;;5.81;100.00
59435;BME280;45241;49.768;8.636;2022-12-05T08:34:45;100379.28;;;5.69;100.00
59435;BME280;45241;49.768;8.636;2022-12-05T08:37:11;100383.38;;;5.89;100.00
59435;BME280;45241;49.768;8.636;2022-12-05T08:39:36;100388.31;;;6.10;100.00
59435;BME280;45241;49.768;8.636;2022-12-05T08:42:02;100384.00;;;6.09;100.00
59435;BME280;45241;49.768;8.636;2022-12-05T08:44:27;100386.50;;;5.84;100.00
59435;BME280;45241;49.768;8.636;2022-12-05T08:46:52;100388.16;;;6.11;100.00
59435;BME280;45241;49.768;8.636;2022-12-05T08:49:17;100392.91;;;6.00;100.00
59435;BME280;45241;49.768;8.636;2022-12-05T08:51:43;100397.31;;;6.17;100.00
59435;BME280;45241;49.768;8.636;2022-12-05T08:54:08;100395.78;;;6.06;100.00
59435;BME280;45241;49.768;8.636;2022-12-05T08:56:33;100402.47;;;6.10;100.00
59435;BME280;45241;49.768;8.636;2022-12-05T08:58:59;100407.53;;;5.96;100.00
59435;BME280;45241;49.768;8.636;2022-12-05T09:01:24;100406.78;;;6.11;100.00
59435;BME280;45241;49.768;8.636;2022-12-05T09:03:54;100403.63;;;6.08;100.00
59435;BME280;45241;49.768;8.636;2022-12-05T09:06:20;100403.53;;;6.26;100.00
59435;BME280;45241;49.768;8.636;2022-12-05T09:08:45;100404.75;;;6.31;100.00
59435;BME280;45241;49.768;8.636;2022-12-05T09:11:15;100405.91;;;6.37;100.00
59435;BME280;45241;49.768;8.636;2022-12-05T09:13:41;100404.47;;;6.17;100.00
59435;BME280;45241;49.768;8.636;2022-12-05T09:16:07;100416.63;;;6.45;100.00
59435;BME280;45241;49.768;8.636;2022-12-05T09:18:33;100417.44;;;6.46;100.00
59435;BME280;45241;49.768;8.636;2022-12-05T09:21:04;100418.31;;;6.20;100.00
59435;BME280;45241;49.768;8.636;2022-12-05T09:23:29;100424.09;;;6.16;100.00
59435;BME280;45241;49.768;8.636;2022-12-05T09:25:54;100421.56;;;6.06;100.00
59435;BME280;45241;49.768;8.636;2022-12-05T09:28:22;100421.97;;;6.19;100.00
59435;BME280;45241;49.768;8.636;2022-12-05T09:30:54;100430.56;;;5.79;100.00
59435;BME280;45241;49.768;8.636;2022-12-05T09:33:19;100419.16;;;6.21;100.00
59435;BME280;45241;49.768;8.636;2022-12-05T09:35:44;100423.31;;;6.23;100.00
59435;BME280;45241;49.768;8.636;2022-12-05T09:38:09;100420.09;;;5.86;100.00
59435;BME280;45241;49.768;8.636;2022-12-05T09:40:36;100423.97;;;5.91;100.00
59435;BME280;45241;49.768;8.636;2022-12-05T09:43:04;100428.69;;;6.31;100.00
59435;BME280;45241;49.768;8.636;2022-12-05T09:45:34;100424.44;;;6.47;100.00
59435;BME280;45241;49.768;8.636;2022-12-05T09:48:11;100426.53;;;6.01;100.00
59435;BME280;45241;49.768;8.636;2022-12-05T09:50:48;100426.06;;;6.05;100.00
59435;BME280;45241;49.768;8.636;2022-12-05T09:58:33;100423.00;;;6.26;100.00
59435;BME280;45241;49.768;8.636;2022-12-05T10:01:26;100427.00;;;6.64;100.00
59435;BME280;45241;49.768;8.636;2022-12-05T10:06:23;100423.91;;;6.09;100.00
59435;BME280;45241;49.768;8.636;2022-12-05T10:09:05;100425.66;;;6.26;100.00
59435;BME280;45241;49.768;8.636;2022-12-05T10:11:56;100429.22;;;6.35;100.00
59435;BME280;45241;49.768;8.636;2022-12-05T10:14:30;100422.38;;;6.75;100.00
59435;BME280;45241;49.768;8.636;2022-12-05T10:16:59;100426.75;;;6.16;100.00
59435;BME280;45241;49.768;8.636;2022-12-05T10:19:31;100424.16;;;6.24;100.00
59435;BME280;45241;49.768;8.636;2022-12-05T10:21:58;100427.31;;;6.19;100.00
59435;BME280;45241;49.768;8.636;2022-12-05T10:24:29;100416.44;;;6.47;100.00
59435;BME280;45241;49.768;8.636;2022-12-05T10:26:57;100417.00;;;6.58;100.00
59435;BME280;45241;49.768;8.636;2022-12-05T10:29:28;100413.22;;;6.35;100.00
59435;BME280;45241;49.768;8.636;2022-12-05T10:32:06;100410.97;;;6.56;100.00
59435;BME280;45241;49.768;8.636;2022-12-05T10:34:42;100414.66;;;6.21;100.00
59435;BME280;45241;49.768;8.636;2022-12-05T10:37:14;100414.63;;;6.55;100.00
59435;BME280;45241;49.768;8.636;2022-12-05T10:39:40;100408.97;;;6.50;100.00
59435;BME280;45241;49.768;8.636;2022-12-05T10:42:05;100410.31;;;6.54;100.00
59435;BME280;45241;49.768;8.636;2022-12-05T10:44:33;100409.34;;;6.63;100.00
59435;BME280;45241;49.768;8.636;2022-12-05T10:46:58;100415.47;;;6.56;100.00
59435;BME280;45241;49.768;8.636;2022-12-05T10:49:24;100413.91;;;6.87;100.00
59435;BME280;45241;49.768;8.636;2022-12-05T10:51:50;100414.34;;;6.66;100.00
59435;BME280;45241;49.768;8.636;2022-12-05T10:54:19;100409.47;;;6.54;100.00
59435;BME280;45241;49.768;8.636;2022-12-05T10:56:46;100405.34;;;6.67;100.00
59435;BME280;45241;49.768;8.636;2022-12-05T10:59:14;100414.88;;;6.78;100.00
59435;BME280;45241;49.768;8.636;2022-12-05T11:01:50;100402.19;;;6.64;100.00
59435;BME280;45241;49.768;8.636;2022-12-05T11:06:52;100413.03;;;6.79;100.00
59435;BME280;45241;49.768;8.636;2022-12-05T11:09:31;100408.84;;;6.60;100.00
59435;BME280;45241;49.768;8.636;2022-12-05T11:14:23;100410.34;;;6.62;100.00
59435;BME280;45241;49.768;8.636;2022-12-05T11:16:53;100410.88;;;6.74;100.00
59435;BME280;45241;49.768;8.636;2022-12-05T11:21:50;100416.06;;;6.33;100.00
59435;BME280;45241;49.768;8.636;2022-12-05T11:24:31;100409.13;;;6.57;100.00
59435;BME280;45241;49.768;8.636;2022-12-05T11:26:58;100410.06;;;6.82;100.00
59435;BME280;45241;49.768;8.636;2022-12-05T11:29:28;100418.81;;;7.00;100.00
59435;BME280;45241;49.768;8.636;2022-12-05T11:31:53;100421.34;;;6.67;100.00
59435;BME280;45241;49.768;8.636;2022-12-05T11:34:19;100416.41;;;6.89;100.00
59435;BME280;45241;49.768;8.636;2022-12-05T11:36:52;100415.03;;;6.77;100.00
59435;BME280;45241;49.768;8.636;2022-12-05T11:39:18;100417.28;;;6.97;100.00
59435;BME280;45241;49.768;8.636;2022-12-05T11:46:55;100413.72;;;6.72;100.00
59435;BME280;45241;49.768;8.636;2022-12-05T11:49:41;100410.63;;;7.01;100.00
59435;BME280;45241;49.768;8.636;2022-12-05T12:00:24;100403.78;;;6.99;100.00
59435;BME280;45241;49.768;8.636;2022-12-05T12:08:15;100405.50;;;6.58;100.00
59435;BME280;45241;49.768;8.636;2022-12-05T12:15:45;100398.97;;;7.03;100.00
59435;BME280;45241;49.768;8.636;2022-12-05T12:20:49;100408.88;;;6.76;100.00
59435;BME280;45241;49.768;8.636;2022-12-05T12:23:24;100404.06;;;6.80;100.00
59435;BME280;45241;49.768;8.636;2022-12-05T12:28:26;100406.88;;;6.78;100.00
59435;BME280;45241;49.768;8.636;2022-12-05T12:31:11;100408.75;;;6.94;100.00
59435;BME280;45241;49.768;8.636;2022-12-05T12:38:35;100401.19;;;7.23;100.00
59435;BME280;45241;49.768;8.636;2022-12-05T12:41:12;100400.09;;;6.84;100.00
59435;BME280;45241;49.768;8.636;2022-12-05T12:46:15;100390.31;;;7.33;100.00
59435;BME280;45241;49.768;8.636;2022-12-05T12:51:10;100395.72;;;6.75;100.00
59435;BME280;45241;49.768;8.636;2022-12-05T12:56:24;100393.94;;;6.91;100.00
59435;BME280;45241;49.768;8.636;2022-12-05T12:59:15;100407.56;;;6.80;100.00
59435;BME280;45241;49.768;8.636;2022-12-05T13:04:33;100397.69;;;7.23;100.00
59435;BME280;45241;49.768;8.636;2022-12-05T13:07:11;100400.25;;;6.90;100.00
59435;BME280;45241;49.768;8.636;2022-12-05T13:09:40;100402.25;;;6.88;100.00
59435;BME280;45241;49.768;8.636;2022-12-05T13:12:13;100395.94;;;6.97;100.00
59435;BME280;45241;49.768;8.636;2022-12-05T13:14:41;100394.34;;;7.29;100.00
59435;BME280;45241;49.768;8.636;2022-12-05T13:17:11;100401.50;;;7.53;100.00
59435;BME280;45241;49.768;8.636;2022-12-05T13:22:06;100392.34;;;7.39;100.00
59435;BME280;45241;49.768;8.636;2022-12-05T13:24:32;100379.16;;;7.13;100.00
59435;BME280;45241;49.768;8.636;2022-12-05T13:27:03;100393.59;;;6.94;100.00
59435;BME280;45241;49.768;8.636;2022-12-05T13:29:38;100389.31;;;7.34;100.00
59435;BME280;45241;49.768;8.636;2022-12-05T13:32:04;100401.34;;;7.38;100.00
59435;BME280;45241;49.768;8.636;2022-12-05T13:36:59;100400.34;;;7.39;100.00
59435;BME280;45241;49.768;8.636;2022-12-05T13:39:50;100405.50;;;7.16;100.00
59435;BME280;45241;49.768;8.636;2022-12-05T13:42:35;100393.84;;;7.25;100.00
59435;BME280;45241;49.768;8.636;2022-12-05T13:47:33;100402.66;;;7.34;100.00
59435;BME280;45241;49.768;8.636;2022-12-05T13:52:40;100408.66;;;7.44;100.00
59435;BME280;45241;49.768;8.636;2022-12-05T13:55:14;100400.69;;;7.36;100.00
59435;BME280;45241;49.768;8.636;2022-12-05T13:57:43;100399.50;;;7.30;100.00
59435;BME280;45241;49.768;8.636;2022-12-05T14:12:44;100413.66;;;7.31;100.00
59435;BME280;45241;49.768;8.636;2022-12-05T14:15:23;100419.97;;;7.22;100.00
59435;BME280;45241;49.768;8.636;2022-12-05T14:17:49;100417.84;;;7.58;100.00
59435;BME280;45241;49.768;8.636;2022-12-05T14:22:55;100420.03;;;7.38;100.00
59435;BME280;45241;49.768;8.636;2022-12-05T14:27:53;100426.13;;;7.06;100.00
59435;BME280;45241;49.768;8.636;2022-12-05T14:30:21;100427.09;;;6.97;100.00
59435;BME280;45241;49.768;8.636;2022-12-05T14:32:47;100423.28;;;7.08;100.00
59435;BME280;45241;49.768;8.636;2022-12-05T14:35:16;100417.69;;;7.43;100.00
59435;BME280;45241;49.768;8.636;2022-12-05T14:37:52;100422.34;;;7.25;100.00
59435;BME280;45241;49.768;8.636;2022-12-05T14:40:37;100422.53;;;7.64;100.00
59435;BME280;45241;49.768;8.636;2022-12-05T14:43:04;100414.50;;;7.31;100.00
59435;BME280;45241;49.768;8.636;2022-12-05T14:47:58;100422.31;;;7.17;100.00
59435;BME280;45241;49.768;8.636;2022-12-05T14:55:43;100414.69;;;7.38;100.00
59435;BME280;45241;49.768;8.636;2022-12-05T14:58:15;100426.69;;;7.26;100.00